createdAt,value
2022-10-04T00:01:49.700Z,15.80
2022-10-04T00:04:24.597Z,15.80
2022-10-04T00:06:57.074Z,15.80
2022-10-04T00:09:32.095Z,15.70
2022-10-04T00:12:02.688Z,15.80
2022-10-04T00:14:33.655Z,15.70
2022-10-04T00:17:10.618Z,15.70
2022-10-04T00:19:48.243Z,15.60
2022-10-04T00:22:20.371Z,15.60
2022-10-04T00:25:05.253Z,15.60
2022-10-04T00:27:35.230Z,15.60
2022-10-04T00:30:19.154Z,15.60
2022-10-04T00:32:50.442Z,15.50
2022-10-04T00:35:41.014Z,15.50
2022-10-04T00:38:16.603Z,15.50
2022-10-04T00:40:49.300Z,15.40
2022-10-04T00:43:21.147Z,15.40
2022-10-04T00:45:54.904Z,13.20
2022-10-04T00:48:34.806Z,15.30
2022-10-04T00:51:12.621Z,15.40
2022-10-04T00:53:51.371Z,15.30
2022-10-04T00:56:23.663Z,15.30
2022-10-04T00:59:08.579Z,15.30
2022-10-04T01:01:39.648Z,15.30
2022-10-04T01:04:17.063Z,15.30
2022-10-04T01:06:47.486Z,15.30
2022-10-04T01:09:20.300Z,15.20
2022-10-04T01:11:53.813Z,15.20
2022-10-04T01:14:32.390Z,15.20
2022-10-04T01:17:02.337Z,15.20
2022-10-04T01:19:34.767Z,15.10
2022-10-04T01:22:13.352Z,15.10
2022-10-04T01:24:46.701Z,15.00
2022-10-04T01:27:31.682Z,15.00
2022-10-04T01:30:01.981Z,15.00
2022-10-04T01:32:32.364Z,15.00
2022-10-04T01:35:05.394Z,15.00
2022-10-04T01:37:35.523Z,15.00
2022-10-04T01:40:09.168Z,15.10
2022-10-04T01:42:41.426Z,15.00
2022-10-04T01:45:15.989Z,15.10
2022-10-04T01:47:57.110Z,15.00
2022-10-04T01:50:31.416Z,15.00
2022-10-04T01:53:04.281Z,15.00
2022-10-04T01:55:37.908Z,15.00
2022-10-04T01:58:12.687Z,14.90
2022-10-04T02:00:48.963Z,14.90
2022-10-04T02:03:21.228Z,14.80
2022-10-04T02:05:53.560Z,14.80
2022-10-04T02:08:28.430Z,14.80
2022-10-04T02:11:02.928Z,14.80
2022-10-04T02:13:41.188Z,14.70
2022-10-04T02:16:17.406Z,14.70
2022-10-04T02:18:47.571Z,14.70
2022-10-04T02:21:18.171Z,14.70
2022-10-04T02:23:51.603Z,14.70
2022-10-04T02:26:24.519Z,14.60
2022-10-04T02:28:54.486Z,14.60
2022-10-04T02:31:37.814Z,13.40
2022-10-04T02:34:08.210Z,14.60
2022-10-04T02:36:39.970Z,14.60
2022-10-04T02:39:12.807Z,14.60
2022-10-04T02:41:46.855Z,14.50
2022-10-04T02:44:21.069Z,14.50
2022-10-04T02:46:57.412Z,14.50
2022-10-04T02:49:32.211Z,14.50
2022-10-04T02:52:04.890Z,14.50
2022-10-04T02:54:37.359Z,14.40
2022-10-04T02:57:16.779Z,14.40
2022-10-04T02:59:46.823Z,14.40
2022-10-04T03:02:41.564Z,14.40
2022-10-04T03:05:13.665Z,14.40
2022-10-04T03:07:44.181Z,14.30
2022-10-04T03:10:15.460Z,14.30
2022-10-04T03:12:52.532Z,14.30
2022-10-04T03:15:23.022Z,14.30
2022-10-04T03:17:53.613Z,14.30
2022-10-04T03:20:24.153Z,14.30
2022-10-04T03:22:56.179Z,14.20
2022-10-04T03:25:29.253Z,14.30
2022-10-04T03:28:03.779Z,14.20
2022-10-04T03:30:34.276Z,14.20
2022-10-04T03:33:08.402Z,14.10
2022-10-04T03:35:39.720Z,14.10
2022-10-04T03:38:11.437Z,14.00
2022-10-04T03:40:45.489Z,14.10
2022-10-04T03:43:18.276Z,14.10
2022-10-04T03:45:49.040Z,14.10
2022-10-04T03:48:26.295Z,14.10
2022-10-04T03:50:56.370Z,14.10
2022-10-04T03:53:32.664Z,14.10
2022-10-04T03:56:04.516Z,14.10
2022-10-04T03:58:37.290Z,14.10
2022-10-04T04:01:21.562Z,14.10
2022-10-04T04:03:57.804Z,14.10
2022-10-04T04:06:28.495Z,14.10
2022-10-04T04:08:59.898Z,14.00
2022-10-04T04:11:31.282Z,14.00
2022-10-04T04:14:07.067Z,14.00
2022-10-04T04:16:37.373Z,14.00
2022-10-04T04:19:08.588Z,13.90
2022-10-04T04:21:39.560Z,14.00
2022-10-04T04:24:16.109Z,13.90
2022-10-04T04:26:48.412Z,13.90
2022-10-04T04:29:23.964Z,13.90
2022-10-04T04:31:55.236Z,13.90
2022-10-04T04:34:28.098Z,13.90
2022-10-04T04:37:00.440Z,13.90
2022-10-04T04:39:45.198Z,13.90
2022-10-04T04:42:18.207Z,13.90
2022-10-04T04:44:55.545Z,14.00
2022-10-04T04:47:36.126Z,14.00
2022-10-04T04:50:08.410Z,13.40
2022-10-04T04:52:46.164Z,14.00
2022-10-04T04:55:19.578Z,14.00
2022-10-04T04:57:49.823Z,14.00
2022-10-04T05:00:26.399Z,14.00
2022-10-04T05:02:58.965Z,14.10
2022-10-04T05:05:30.522Z,14.00
2022-10-04T05:08:08.923Z,14.00
2022-10-04T05:10:39.053Z,13.90
2022-10-04T05:13:09.299Z,13.90
2022-10-04T05:15:43.637Z,13.90
2022-10-04T05:18:18.031Z,13.90
2022-10-04T05:20:51.001Z,13.90
2022-10-04T05:23:32.708Z,13.90
2022-10-04T05:26:04.454Z,13.90
2022-10-04T05:28:34.535Z,13.90
2022-10-04T05:31:15.260Z,13.90
2022-10-04T05:33:48.639Z,13.90
2022-10-04T05:36:33.920Z,13.80
2022-10-04T05:39:08.124Z,13.60
2022-10-04T05:41:40.814Z,13.40
2022-10-04T05:44:26.287Z,13.30
2022-10-04T05:46:59.804Z,13.20
2022-10-04T05:49:32.284Z,13.00
2022-10-04T05:52:03.066Z,13.00
2022-10-04T05:54:34.340Z,12.90
2022-10-04T05:57:25.365Z,12.70
2022-10-04T06:00:07.010Z,12.70
2022-10-04T06:02:50.302Z,12.60
2022-10-04T06:05:28.777Z,12.60
2022-10-04T06:08:01.376Z,12.60
2022-10-04T06:10:39.565Z,12.60
2022-10-04T06:13:13.669Z,12.60
2022-10-04T06:15:53.369Z,12.50
2022-10-04T06:18:32.134Z,14.80
2022-10-04T06:21:22.867Z,12.60
2022-10-04T06:23:58.276Z,12.60
2022-10-04T06:26:32.018Z,12.60
2022-10-04T06:29:03.041Z,12.60
2022-10-04T06:31:42.939Z,12.60
2022-10-04T06:34:28.690Z,12.60
2022-10-04T06:37:15.719Z,12.60
2022-10-04T06:40:04.821Z,12.50
2022-10-04T06:42:49.883Z,12.50
2022-10-04T06:45:29.754Z,12.50
2022-10-04T06:48:15.817Z,12.60
2022-10-04T06:50:51.489Z,12.70
2022-10-04T06:53:31.272Z,12.80
2022-10-04T06:56:12.820Z,12.80
2022-10-04T06:59:05.080Z,12.90
2022-10-04T07:01:36.468Z,13.00
2022-10-04T07:04:12.377Z,13.10
2022-10-04T07:06:45.713Z,13.20
2022-10-04T07:09:26.854Z,13.20
2022-10-04T07:11:59.887Z,13.40
2022-10-04T07:14:32.727Z,13.40
2022-10-04T07:17:06.434Z,13.50
2022-10-04T07:19:39.343Z,13.70
2022-10-04T07:22:28.477Z,14.00
2022-10-04T07:25:18.581Z,14.00
2022-10-04T07:28:13.726Z,14.50
2022-10-04T07:30:44.183Z,14.70
2022-10-04T07:33:17.775Z,14.70
2022-10-04T07:35:48.998Z,15.30
2022-10-04T07:38:22.497Z,16.40
2022-10-04T07:41:00.737Z,17.50
2022-10-04T07:43:32.534Z,18.50
2022-10-04T07:46:05.956Z,19.40
2022-10-04T07:48:35.831Z,20.20
2022-10-04T07:51:09.577Z,20.60
2022-10-04T07:53:43.424Z,20.60
2022-10-04T07:56:18.436Z,21.00
2022-10-04T07:58:54.590Z,21.20
2022-10-04T08:01:29.881Z,22.00
2022-10-04T08:04:08.408Z,22.50
2022-10-04T08:06:39.510Z,22.90
2022-10-04T08:09:25.660Z,22.70
2022-10-04T08:12:02.841Z,22.90
2022-10-04T08:14:39.653Z,23.30
2022-10-04T08:17:15.884Z,23.50
2022-10-04T08:19:49.734Z,23.50
2022-10-04T08:22:26.590Z,23.20
2022-10-04T08:25:02.166Z,23.20
2022-10-04T08:28:10.894Z,23.40
2022-10-04T08:30:45.455Z,23.30
2022-10-04T08:33:23.101Z,22.90
2022-10-04T08:35:58.455Z,22.70
2022-10-04T08:38:37.092Z,22.80
2022-10-04T08:41:32.401Z,22.70
2022-10-04T08:44:14.741Z,22.70
2022-10-04T08:47:00.959Z,22.60
2022-10-04T08:49:51.306Z,22.90
2022-10-04T08:52:41.802Z,24.20
2022-10-04T08:55:23.579Z,25.20
2022-10-04T08:58:08.251Z,26.20
2022-10-04T09:00:52.827Z,27.10
2022-10-04T09:03:37.622Z,27.60
2022-10-04T09:06:26.047Z,28.00
2022-10-04T09:09:09.342Z,28.20
2022-10-04T09:11:49.144Z,28.00
2022-10-04T09:14:31.468Z,27.10
2022-10-04T09:17:07.965Z,26.70
2022-10-04T09:19:44.677Z,26.90
2022-10-04T09:22:27.639Z,27.70
2022-10-04T09:25:12.001Z,28.60
2022-10-04T09:27:55.382Z,29.40
2022-10-04T09:30:32.235Z,29.80
2022-10-04T09:33:17.645Z,30.20
2022-10-04T09:36:01.631Z,29.90
2022-10-04T09:38:46.289Z,29.80
2022-10-04T09:41:35.072Z,30.30
2022-10-04T09:44:18.402Z,30.60
2022-10-04T09:46:57.952Z,30.70
2022-10-04T09:49:39.643Z,31.10
2022-10-04T09:52:16.249Z,30.40
2022-10-04T09:55:05.275Z,29.70
2022-10-04T09:57:45.352Z,30.50
2022-10-04T10:00:22.303Z,31.00
2022-10-04T10:03:13.480Z,31.40
2022-10-04T10:06:03.441Z,31.90
2022-10-04T10:08:36.190Z,31.20
2022-10-04T10:11:22.304Z,30.20
2022-10-04T10:14:16.502Z,30.40
2022-10-04T10:17:01.134Z,31.30
2022-10-04T10:19:58.263Z,31.70
2022-10-04T10:22:34.634Z,32.30
2022-10-04T10:25:14.130Z,32.20
2022-10-04T10:27:52.566Z,31.50
2022-10-04T10:30:28.331Z,31.10
2022-10-04T10:33:13.045Z,31.60
2022-10-04T10:36:00.866Z,32.50
2022-10-04T10:38:35.862Z,32.90
2022-10-04T10:41:23.615Z,32.90
2022-10-04T10:44:03.215Z,32.00
2022-10-04T10:46:52.168Z,30.80
2022-10-04T10:49:30.050Z,30.60
2022-10-04T10:52:17.962Z,31.40
2022-10-04T10:55:02.752Z,32.00
2022-10-04T10:57:40.662Z,32.90
2022-10-04T11:00:21.455Z,33.10
2022-10-04T11:03:12.809Z,32.80
2022-10-04T11:06:00.252Z,31.50
2022-10-04T11:08:55.660Z,30.00
2022-10-04T11:11:39.436Z,28.50
2022-10-04T11:14:21.281Z,27.10
2022-10-04T11:17:11.844Z,26.20
2022-10-04T11:19:52.683Z,25.50
2022-10-04T11:22:44.688Z,24.90
2022-10-04T11:25:41.907Z,24.70
2022-10-04T11:28:14.334Z,24.40
2022-10-04T11:31:03.058Z,24.00
2022-10-04T11:33:45.428Z,23.90
2022-10-04T11:36:29.030Z,23.80
2022-10-04T11:39:13.624Z,23.70
2022-10-04T11:41:54.419Z,23.40
2022-10-04T11:44:39.128Z,23.50
2022-10-04T11:47:13.765Z,23.30
2022-10-04T11:49:56.686Z,23.10
2022-10-04T11:52:40.625Z,23.10
2022-10-04T11:55:23.981Z,22.70
2022-10-04T11:57:57.575Z,22.70
2022-10-04T12:00:29.405Z,22.70
2022-10-04T12:03:16.933Z,22.70
2022-10-04T12:06:04.319Z,22.60
2022-10-04T12:08:36.023Z,22.50
2022-10-04T12:11:20.753Z,22.30
2022-10-04T12:13:57.820Z,22.10
2022-10-04T12:16:37.799Z,22.00
2022-10-04T12:19:22.496Z,21.90
2022-10-04T12:22:01.866Z,21.90
2022-10-04T12:24:47.905Z,21.90
2022-10-04T12:27:32.749Z,21.80
2022-10-04T12:30:17.389Z,21.80
2022-10-04T12:32:58.227Z,21.70
2022-10-04T12:35:32.985Z,21.70
2022-10-04T12:38:24.658Z,21.70
2022-10-04T12:40:57.602Z,21.50
2022-10-04T12:43:32.507Z,21.40
2022-10-04T12:46:07.493Z,21.50
2022-10-04T12:48:48.384Z,21.50
2022-10-04T12:51:26.160Z,21.50
2022-10-04T12:54:02.049Z,21.40
2022-10-04T12:56:48.905Z,21.30
2022-10-04T12:59:25.540Z,21.20
2022-10-04T13:01:59.586Z,21.20
2022-10-04T13:04:39.162Z,21.30
2022-10-04T13:07:23.948Z,21.30
2022-10-04T13:10:23.145Z,21.20
2022-10-04T13:13:05.543Z,21.20
2022-10-04T13:18:31.553Z,21.10
2022-10-04T13:21:09.723Z,21.00
2022-10-04T13:23:49.537Z,21.10
2022-10-04T13:26:28.798Z,21.00
2022-10-04T13:29:02.982Z,21.10
2022-10-04T13:31:38.487Z,21.10
2022-10-04T13:34:20.040Z,21.10
2022-10-04T13:37:04.816Z,21.10
2022-10-04T13:39:43.668Z,21.10
2022-10-04T13:42:18.089Z,20.90
2022-10-04T13:44:55.112Z,21.00
2022-10-04T13:47:31.961Z,21.10
2022-10-04T13:50:09.547Z,21.20
2022-10-04T13:52:57.487Z,21.00
2022-10-04T13:55:43.886Z,20.90
2022-10-04T13:58:21.656Z,20.90
2022-10-04T14:01:03.751Z,20.90
2022-10-04T14:03:44.091Z,20.90
2022-10-04T14:06:28.968Z,20.70
2022-10-04T14:09:24.816Z,20.80
2022-10-04T14:12:15.872Z,20.70
2022-10-04T14:15:06.675Z,20.60
2022-10-04T14:17:51.253Z,20.60
2022-10-04T14:20:41.185Z,20.60
2022-10-04T14:23:31.165Z,20.60
2022-10-04T14:26:22.263Z,20.60
2022-10-04T14:29:02.677Z,20.60
2022-10-04T14:31:47.262Z,20.50
2022-10-04T14:34:34.301Z,20.50
2022-10-04T14:37:15.219Z,20.50
2022-10-04T14:39:56.505Z,20.40
2022-10-04T14:42:44.238Z,20.40
2022-10-04T14:45:24.732Z,20.50
2022-10-04T14:48:09.361Z,20.40
2022-10-04T14:50:47.727Z,20.40
2022-10-04T14:53:23.774Z,20.30
2022-10-04T14:56:11.491Z,20.40
2022-10-04T14:58:49.643Z,20.40
2022-10-04T15:01:27.291Z,20.40
2022-10-04T15:04:14.113Z,20.30
2022-10-04T15:06:48.966Z,20.20
2022-10-04T15:09:33.441Z,20.40
2022-10-04T15:15:12.299Z,20.40
2022-10-04T15:17:57.293Z,20.30
2022-10-04T15:20:28.828Z,20.30
2022-10-04T15:23:00.006Z,20.30
2022-10-04T15:25:43.823Z,20.30
2022-10-04T15:28:30.765Z,20.30
2022-10-04T15:31:04.493Z,20.30
2022-10-04T15:33:42.661Z,20.20
2022-10-04T15:36:19.158Z,20.20
2022-10-04T15:38:54.101Z,20.20
2022-10-04T15:41:29.476Z,20.20
2022-10-04T15:44:18.970Z,20.10
2022-10-04T15:46:51.851Z,20.10
2022-10-04T15:49:40.854Z,20.10
2022-10-04T15:52:31.228Z,20.10
2022-10-04T15:55:13.741Z,20.10
2022-10-04T15:57:56.369Z,20.10
2022-10-04T16:00:28.759Z,20.10
2022-10-04T16:03:09.330Z,20.10
2022-10-04T16:05:44.565Z,20.00
2022-10-04T16:08:25.584Z,20.00
2022-10-04T16:11:16.117Z,20.00
2022-10-04T16:13:51.401Z,19.90
2022-10-04T16:16:36.209Z,19.80
2022-10-04T16:19:12.307Z,19.70
2022-10-04T16:21:51.968Z,19.70
2022-10-04T16:24:36.790Z,19.70
2022-10-04T16:27:13.767Z,19.70
2022-10-04T16:30:07.944Z,19.70
2022-10-04T16:32:42.688Z,19.60
2022-10-04T16:35:21.172Z,19.50
2022-10-04T16:37:59.542Z,19.50
2022-10-04T16:40:36.738Z,19.50
2022-10-04T16:43:09.239Z,19.40
2022-10-04T16:45:45.758Z,19.30
2022-10-04T16:48:27.938Z,19.30
2022-10-04T16:51:03.984Z,19.30
2022-10-04T16:53:45.907Z,19.20
2022-10-04T16:56:18.042Z,19.20
2022-10-04T16:58:52.817Z,19.10
2022-10-04T17:01:37.551Z,19.20
2022-10-04T17:04:14.318Z,19.10
2022-10-04T17:06:48.924Z,19.10
2022-10-04T17:09:27.651Z,18.90
2022-10-04T17:12:05.291Z,18.90
2022-10-04T17:14:49.753Z,18.90
2022-10-04T17:17:23.772Z,18.90
2022-10-04T17:19:57.092Z,18.90
2022-10-04T17:22:32.861Z,18.90
2022-10-04T17:25:11.069Z,18.90
2022-10-04T17:27:48.599Z,18.90
2022-10-04T17:30:20.186Z,18.90
2022-10-04T17:33:10.944Z,18.90
2022-10-04T17:35:57.602Z,18.90
2022-10-04T17:38:30.933Z,18.80
2022-10-04T17:41:09.549Z,18.90
2022-10-04T17:43:43.156Z,18.80
2022-10-04T17:46:17.122Z,18.80
2022-10-04T17:49:01.266Z,18.80
2022-10-04T17:51:56.610Z,18.80
2022-10-04T17:54:40.684Z,18.80
2022-10-04T17:57:23.238Z,18.70
2022-10-04T17:59:55.737Z,18.80
2022-10-04T18:02:27.713Z,18.80
2022-10-04T18:04:59.439Z,18.70
2022-10-04T18:07:31.015Z,18.70
2022-10-04T18:10:02.451Z,18.70
2022-10-04T18:12:36.792Z,18.60
2022-10-04T18:15:10.273Z,18.50
2022-10-04T18:17:42.437Z,18.60
2022-10-04T18:20:28.294Z,18.60
2022-10-04T18:23:05.457Z,18.60
2022-10-04T18:25:35.785Z,18.50
2022-10-04T18:28:16.286Z,18.60
2022-10-04T18:30:59.400Z,18.60
2022-10-04T18:33:33.635Z,18.60
2022-10-04T18:36:05.811Z,18.60
2022-10-04T18:38:38.021Z,18.50
2022-10-04T18:41:19.452Z,18.50
2022-10-04T18:44:15.704Z,18.50
2022-10-04T18:46:48.446Z,18.50
2022-10-04T18:49:21.372Z,18.40
2022-10-04T18:51:56.766Z,18.40
2022-10-04T18:54:31.731Z,18.40
2022-10-04T18:57:05.218Z,18.40
2022-10-04T18:59:55.548Z,18.40
2022-10-04T19:02:32.683Z,18.30
2022-10-04T19:05:10.080Z,18.30
2022-10-04T19:07:44.029Z,18.20
2022-10-04T19:10:26.253Z,18.20
2022-10-04T19:13:02.647Z,18.20
2022-10-04T19:15:40.437Z,18.10
2022-10-04T19:18:17.034Z,18.10
2022-10-04T19:20:49.747Z,18.10
2022-10-04T19:23:24.991Z,18.10
2022-10-04T19:26:30.046Z,18.00
2022-10-04T19:28:50.869Z,18.00
2022-10-04T19:31:26.349Z,18.00
2022-10-04T19:33:58.893Z,18.10
2022-10-04T19:36:37.054Z,18.10
2022-10-04T19:39:14.559Z,18.20
2022-10-04T19:41:50.799Z,18.10
2022-10-04T19:44:26.597Z,18.10
2022-10-04T19:47:01.286Z,18.10
2022-10-04T19:49:36.273Z,18.10
2022-10-04T19:52:18.252Z,18.00
2022-10-04T19:54:51.327Z,17.80
2022-10-04T19:57:24.476Z,17.80
2022-10-04T19:59:54.320Z,17.80
2022-10-04T20:02:26.812Z,17.80
2022-10-04T20:04:56.971Z,17.80
2022-10-04T20:07:27.988Z,17.80
2022-10-04T20:09:59.119Z,17.90
2022-10-04T20:12:37.149Z,17.90
2022-10-04T20:15:27.722Z,17.90
2022-10-04T20:18:01.537Z,18.00
2022-10-04T20:20:46.289Z,17.90
2022-10-04T20:23:37.114Z,17.90
2022-10-04T20:26:07.700Z,18.30
2022-10-04T20:28:42.927Z,17.90
2022-10-04T20:31:13.561Z,17.90
2022-10-04T20:33:53.517Z,17.90
2022-10-04T20:36:38.281Z,17.90
2022-10-04T20:39:08.169Z,17.90
2022-10-04T20:42:00.139Z,17.90
2022-10-04T20:44:45.381Z,17.90
2022-10-04T20:47:22.598Z,17.90
2022-10-04T20:49:57.058Z,17.80
2022-10-04T20:52:31.254Z,17.80
2022-10-04T20:55:02.127Z,17.70
2022-10-04T20:57:35.264Z,17.70
2022-10-04T21:00:08.823Z,17.60
2022-10-04T21:02:38.616Z,17.60
2022-10-04T21:05:17.668Z,17.60
2022-10-04T21:07:47.391Z,17.60
2022-10-04T21:10:19.992Z,17.70
2022-10-04T21:12:50.176Z,17.70
2022-10-04T21:15:24.338Z,17.70
2022-10-04T21:18:04.888Z,17.70
2022-10-04T21:20:53.280Z,17.70
2022-10-04T21:23:30.278Z,17.70
2022-10-04T21:26:14.933Z,17.70
2022-10-04T21:28:46.635Z,17.70
2022-10-04T21:31:16.454Z,17.70
2022-10-04T21:33:46.236Z,17.70
2022-10-04T21:36:18.835Z,17.70
2022-10-04T21:38:48.589Z,17.70
2022-10-04T21:41:19.467Z,17.70
2022-10-04T21:43:49.215Z,17.70
2022-10-04T21:46:24.352Z,17.70
2022-10-04T21:48:54.172Z,17.70
2022-10-04T21:51:26.860Z,17.70
2022-10-04T21:53:56.675Z,17.70
2022-10-04T21:56:26.969Z,17.70
2022-10-04T21:58:56.813Z,17.70
2022-10-04T22:01:26.729Z,17.80
2022-10-04T22:03:58.241Z,17.80
2022-10-04T22:06:31.334Z,17.70
2022-10-04T22:09:01.253Z,17.70
2022-10-04T22:11:31.155Z,17.70
2022-10-04T22:14:00.963Z,17.70
2022-10-04T22:16:33.908Z,17.70
2022-10-04T22:19:04.849Z,17.70
2022-10-04T22:21:37.260Z,17.70
2022-10-04T22:24:07.356Z,17.60
2022-10-04T22:26:37.198Z,17.70
2022-10-04T22:29:07.100Z,17.70
2022-10-04T22:31:39.485Z,17.60
2022-10-04T22:34:16.687Z,17.60
2022-10-04T22:36:51.498Z,17.60
2022-10-04T22:39:22.104Z,17.50
2022-10-04T22:41:55.125Z,17.60
2022-10-04T22:44:26.211Z,17.50
2022-10-04T22:46:56.550Z,17.50
2022-10-04T22:49:27.654Z,17.40
2022-10-04T22:52:01.168Z,17.40
2022-10-04T22:54:34.007Z,17.40
2022-10-04T22:57:03.772Z,17.40
2022-10-04T22:59:36.881Z,17.40
2022-10-04T23:02:09.604Z,17.40
2022-10-04T23:04:39.424Z,17.40
2022-10-04T23:07:11.869Z,17.40
2022-10-04T23:09:42.182Z,17.30
2022-10-04T23:12:12.333Z,17.40
2022-10-04T23:14:42.805Z,17.40
2022-10-04T23:17:20.099Z,17.40
2022-10-04T23:19:49.904Z,17.40
2022-10-04T23:22:25.168Z,17.40
2022-10-04T23:24:55.184Z,17.40
2022-10-04T23:27:24.996Z,17.30
2022-10-04T23:29:58.296Z,17.30
2022-10-04T23:32:28.734Z,17.30
2022-10-04T23:34:58.543Z,17.30
2022-10-04T23:37:33.548Z,17.30
2022-10-04T23:40:03.604Z,17.30
2022-10-04T23:42:36.876Z,17.20
2022-10-04T23:45:15.035Z,17.20
2022-10-04T23:47:44.879Z,17.20
2022-10-04T23:50:21.252Z,17.10
2022-10-04T23:52:55.412Z,15.90
2022-10-04T23:55:25.983Z,17.20
2022-10-04T23:57:55.861Z,17.20
